createdAt,value
2022-09-11T00:01:18.415Z,14.36
2022-09-11T00:03:47.820Z,14.37
2022-09-11T00:06:28.586Z,14.38
2022-09-11T00:09:00.408Z,14.38
2022-09-11T00:11:30.518Z,14.42
2022-09-11T00:13:58.830Z,14.37
2022-09-11T00:16:30.079Z,14.35
2022-09-11T00:19:00.816Z,14.32
2022-09-11T00:21:29.476Z,14.33
2022-09-11T00:23:58.131Z,14.38
2022-09-11T00:26:26.850Z,14.38
2022-09-11T00:28:56.153Z,14.35
2022-09-11T00:31:26.583Z,14.36
2022-09-11T00:33:56.618Z,14.40
2022-09-11T00:36:27.381Z,14.41
2022-09-11T00:38:56.371Z,14.38
2022-09-11T00:41:27.365Z,14.40
2022-09-11T00:44:07.269Z,14.42
2022-09-11T00:46:39.941Z,14.38
2022-09-11T00:49:25.251Z,14.37
2022-09-11T00:51:56.809Z,14.37
2022-09-11T00:54:29.664Z,14.38
2022-09-11T00:57:01.318Z,14.41
2022-09-11T00:59:31.529Z,14.38
2022-09-11T01:01:59.549Z,14.36
2022-09-11T01:04:29.584Z,14.38
2022-09-11T01:07:00.318Z,14.35
2022-09-11T01:09:30.853Z,14.40
2022-09-11T01:12:06.776Z,14.42
2022-09-11T01:14:45.452Z,14.39
2022-09-11T01:17:26.981Z,14.42
2022-09-11T01:20:14.286Z,14.42
2022-09-11T01:22:59.473Z,14.37
2022-09-11T01:25:35.044Z,14.41
2022-09-11T01:28:12.600Z,14.38
2022-09-11T01:30:47.450Z,14.36
2022-09-11T01:33:23.615Z,14.42
2022-09-11T01:35:57.498Z,14.40
2022-09-11T01:38:35.419Z,14.35
2022-09-11T01:41:09.243Z,14.41
2022-09-11T01:43:44.119Z,14.32
2022-09-11T01:46:17.559Z,14.31
2022-09-11T01:48:49.176Z,14.37
2022-09-11T01:51:22.327Z,14.31
2022-09-11T01:53:52.608Z,14.31
2022-09-11T01:56:24.964Z,14.34
2022-09-11T01:59:00.031Z,14.31
2022-09-11T02:01:31.815Z,14.33
2022-09-11T02:04:07.459Z,14.37
2022-09-11T02:06:43.674Z,14.31
2022-09-11T02:09:16.662Z,14.32
2022-09-11T02:11:49.584Z,14.31
2022-09-11T02:14:27.010Z,14.32
2022-09-11T02:17:04.528Z,14.31
2022-09-11T02:19:32.926Z,14.27
2022-09-11T02:22:01.180Z,14.24
2022-09-11T02:24:29.760Z,14.23
2022-09-11T02:27:02.511Z,14.24
2022-09-11T02:29:34.284Z,14.22
2022-09-11T02:32:03.871Z,14.25
2022-09-11T02:34:34.559Z,14.23
2022-09-11T02:37:15.309Z,14.25
2022-09-11T02:40:03.637Z,14.25
2022-09-11T02:42:44.707Z,14.24
2022-09-11T02:45:30.537Z,14.28
2022-09-11T02:48:12.196Z,14.26
2022-09-11T02:50:46.760Z,14.27
2022-09-11T02:53:26.749Z,14.29
2022-09-11T02:56:04.616Z,14.27
2022-09-11T02:58:40.933Z,14.27
2022-09-11T03:01:11.897Z,14.28
2022-09-11T03:03:45.279Z,14.28
2022-09-11T03:06:17.777Z,14.31
2022-09-11T03:08:47.204Z,14.29
2022-09-11T03:11:17.754Z,14.32
2022-09-11T03:13:47.876Z,14.32
2022-09-11T03:16:19.168Z,14.34
2022-09-11T03:18:47.356Z,14.30
2022-09-11T03:21:16.981Z,14.31
2022-09-11T03:23:45.034Z,14.32
2022-09-11T03:26:12.973Z,14.35
2022-09-11T03:28:41.123Z,14.33
2022-09-11T03:31:09.535Z,14.32
2022-09-11T03:33:39.508Z,14.32
2022-09-11T03:36:07.890Z,14.35
2022-09-11T03:38:36.170Z,14.36
2022-09-11T03:41:04.612Z,14.33
2022-09-11T03:43:35.176Z,14.34
2022-09-11T03:46:03.322Z,14.36
2022-09-11T03:48:32.453Z,14.38
2022-09-11T03:51:01.892Z,14.41
2022-09-11T03:53:29.885Z,14.39
2022-09-11T03:55:59.115Z,14.38
2022-09-11T03:58:27.246Z,14.37
2022-09-11T04:00:56.253Z,14.33
2022-09-11T04:03:24.671Z,14.36
2022-09-11T04:06:01.955Z,14.38
2022-09-11T04:08:33.825Z,14.35
2022-09-11T04:11:06.736Z,14.38
2022-09-11T04:13:38.806Z,14.36
2022-09-11T04:16:12.782Z,14.35
2022-09-11T04:18:44.114Z,14.36
2022-09-11T04:21:15.358Z,14.37
2022-09-11T04:23:45.613Z,14.36
2022-09-11T04:26:15.916Z,14.35
2022-09-11T04:28:45.883Z,14.38
2022-09-11T04:31:17.031Z,14.35
2022-09-11T04:33:45.889Z,14.37
2022-09-11T04:36:19.063Z,14.38
2022-09-11T04:38:48.088Z,14.38
2022-09-11T04:41:17.574Z,14.38
2022-09-11T04:43:45.569Z,14.35
2022-09-11T04:46:17.480Z,14.37
2022-09-11T04:48:46.923Z,14.40
2022-09-11T04:51:22.822Z,14.37
2022-09-11T04:53:51.761Z,14.37
2022-09-11T04:56:21.900Z,14.35
2022-09-11T04:58:55.122Z,14.36
2022-09-11T05:01:27.517Z,14.34
2022-09-11T05:04:00.567Z,14.34
2022-09-11T05:06:31.337Z,14.37
2022-09-11T05:09:04.305Z,14.37
2022-09-11T05:11:35.464Z,14.37
2022-09-11T05:14:04.079Z,14.36
2022-09-11T05:16:35.742Z,14.37
2022-09-11T05:19:05.185Z,14.36
2022-09-11T05:21:36.848Z,14.36
2022-09-11T05:24:06.099Z,14.38
2022-09-11T05:26:40.176Z,14.41
2022-09-11T05:29:12.649Z,14.42
2022-09-11T05:31:53.199Z,14.38
2022-09-11T05:34:22.522Z,14.43
2022-09-11T05:36:53.232Z,14.43
2022-09-11T05:39:21.344Z,14.45
2022-09-11T05:41:51.608Z,14.45
2022-09-11T05:44:19.884Z,14.46
2022-09-11T05:46:48.844Z,14.47
2022-09-11T05:49:16.946Z,14.47
2022-09-11T05:51:45.277Z,14.46
2022-09-11T05:54:15.381Z,14.51
2022-09-11T05:56:43.549Z,14.52
2022-09-11T05:59:18.246Z,14.59
2022-09-11T06:01:49.791Z,14.55
2022-09-11T06:04:38.055Z,14.58
2022-09-11T06:07:07.597Z,14.60
2022-09-11T06:09:37.728Z,14.63
2022-09-11T06:12:06.182Z,14.63
2022-09-11T06:14:34.167Z,14.65
2022-09-11T06:17:02.147Z,14.65
2022-09-11T06:19:33.226Z,14.69
2022-09-11T06:22:01.297Z,14.71
2022-09-11T06:24:42.104Z,14.72
2022-09-11T06:27:10.228Z,14.75
2022-09-11T06:29:42.108Z,14.76
2022-09-11T06:32:10.773Z,14.77
2022-09-11T06:34:40.423Z,14.78
2022-09-11T06:37:12.088Z,14.80
2022-09-11T06:39:41.528Z,14.80
2022-09-11T06:42:11.907Z,14.83
2022-09-11T06:44:42.008Z,14.86
2022-09-11T06:47:13.442Z,14.88
2022-09-11T06:49:41.449Z,14.93
2022-09-11T06:52:28.138Z,14.97
2022-09-11T06:55:17.768Z,14.97
2022-09-11T06:57:54.180Z,15.02
2022-09-11T07:00:26.952Z,15.06
2022-09-11T07:02:56.424Z,15.10
2022-09-11T07:05:25.919Z,15.15
2022-09-11T07:07:55.403Z,15.21
2022-09-11T07:10:26.313Z,15.24
2022-09-11T07:12:58.863Z,15.28
2022-09-11T07:15:27.270Z,15.34
2022-09-11T07:17:55.939Z,15.35
2022-09-11T07:20:23.888Z,15.34
2022-09-11T07:22:51.963Z,15.44
2022-09-11T07:25:21.784Z,15.49
2022-09-11T07:27:51.985Z,15.51
2022-09-11T07:30:21.234Z,15.50
2022-09-11T07:32:52.837Z,15.55
2022-09-11T07:35:21.796Z,15.58
2022-09-11T07:37:52.065Z,15.59
2022-09-11T07:40:24.646Z,15.58
2022-09-11T07:42:54.640Z,15.61
2022-09-11T07:45:23.230Z,15.61
2022-09-11T07:47:52.157Z,15.62
2022-09-11T07:50:24.257Z,15.66
2022-09-11T07:52:52.755Z,15.69
2022-09-11T07:55:21.850Z,15.71
2022-09-11T07:57:52.057Z,15.71
2022-09-11T08:00:22.391Z,15.81
2022-09-11T08:02:58.401Z,15.87
2022-09-11T08:05:33.360Z,15.74
2022-09-11T08:08:01.542Z,15.85
2022-09-11T08:10:30.356Z,15.92
2022-09-11T08:13:00.205Z,15.95
2022-09-11T08:15:34.682Z,16.02
2022-09-11T08:18:05.537Z,16.01
2022-09-11T08:20:33.709Z,16.08
2022-09-11T08:23:02.059Z,16.06
2022-09-11T08:25:30.304Z,16.11
2022-09-11T08:28:00.405Z,16.03
2022-09-11T08:30:28.596Z,16.06
2022-09-11T08:32:57.996Z,16.11
2022-09-11T08:35:26.826Z,16.13
2022-09-11T08:37:55.705Z,16.21
2022-09-11T08:40:24.549Z,16.16
2022-09-11T08:42:56.356Z,16.28
2022-09-11T08:45:30.267Z,16.32
2022-09-11T08:48:01.587Z,16.40
2022-09-11T08:50:36.613Z,16.42
2022-09-11T08:53:07.754Z,16.44
2022-09-11T08:55:43.900Z,16.57
2022-09-11T08:58:24.110Z,16.62
2022-09-11T09:01:02.410Z,16.68
2022-09-11T09:03:49.550Z,16.72
2022-09-11T09:06:42.825Z,16.76
2022-09-11T09:09:19.719Z,16.79
2022-09-11T09:11:57.598Z,16.77
2022-09-11T09:14:43.427Z,16.80
2022-09-11T09:17:19.064Z,16.80
2022-09-11T09:19:53.937Z,16.74
2022-09-11T09:22:27.484Z,16.74
2022-09-11T09:25:01.075Z,16.75
2022-09-11T09:27:35.410Z,16.77
2022-09-11T09:30:06.908Z,16.77
2022-09-11T09:32:42.813Z,16.79
2022-09-11T09:35:19.506Z,16.87
2022-09-11T09:37:48.722Z,16.87
2022-09-11T09:40:18.875Z,16.98
2022-09-11T09:43:21.039Z,17.14
2022-09-11T09:45:57.574Z,17.28
2022-09-11T09:48:25.716Z,17.42
2022-09-11T09:50:55.110Z,17.47
2022-09-11T09:53:32.689Z,17.54
2022-09-11T09:56:01.516Z,17.50
2022-09-11T09:58:37.811Z,17.49
2022-09-11T10:01:28.798Z,17.47
2022-09-11T10:04:12.599Z,17.52
2022-09-11T10:06:42.319Z,17.69
2022-09-11T10:09:21.236Z,17.68
2022-09-11T10:11:55.807Z,17.77
2022-09-11T10:14:49.978Z,17.78
2022-09-11T10:17:21.666Z,18.05
2022-09-11T10:19:50.935Z,18.10
2022-09-11T10:22:27.686Z,18.22
2022-09-11T10:25:12.141Z,18.28
2022-09-11T10:28:01.822Z,18.30
2022-09-11T10:30:39.023Z,18.23
2022-09-11T10:33:17.660Z,18.16
2022-09-11T10:35:53.145Z,18.31
2022-09-11T10:38:25.453Z,18.34
2022-09-11T10:41:09.418Z,18.28
2022-09-11T10:43:48.473Z,18.38
2022-09-11T10:46:30.020Z,18.38
2022-09-11T10:49:00.550Z,18.56
2022-09-11T10:51:31.238Z,18.52
2022-09-11T10:54:13.247Z,18.55
2022-09-11T10:56:51.728Z,18.40
2022-09-11T10:59:26.131Z,18.36
2022-09-11T11:01:54.494Z,18.40
2022-09-11T11:04:22.882Z,18.37
2022-09-11T11:07:04.794Z,18.37
2022-09-11T11:09:46.525Z,18.41
2022-09-11T11:12:33.035Z,18.43
2022-09-11T11:15:30.054Z,18.42
2022-09-11T11:18:16.037Z,18.45
2022-09-11T11:20:50.894Z,18.43
2022-09-11T11:23:45.596Z,18.44
2022-09-11T11:26:36.779Z,18.37
2022-09-11T11:29:22.941Z,18.46
2022-09-11T11:32:09.926Z,18.38
2022-09-11T11:35:01.340Z,18.50
2022-09-11T11:37:34.935Z,18.51
2022-09-11T11:40:07.707Z,18.58
2022-09-11T11:42:41.486Z,18.73
2022-09-11T11:45:17.969Z,18.77
2022-09-11T11:47:47.876Z,18.86
2022-09-11T11:50:31.604Z,18.92
2022-09-11T11:53:09.144Z,19.03
2022-09-11T11:55:51.397Z,19.06
2022-09-11T11:58:35.629Z,19.19
2022-09-11T12:01:07.718Z,19.19
2022-09-11T12:03:42.581Z,19.20
2022-09-11T12:06:11.334Z,19.33
2022-09-11T12:08:45.036Z,19.39
2022-09-11T12:11:17.302Z,19.44
2022-09-11T12:13:49.099Z,19.52
2022-09-11T12:16:21.243Z,19.44
2022-09-11T12:19:05.629Z,19.38
2022-09-11T12:21:40.344Z,19.26
2022-09-11T12:24:18.694Z,19.21
2022-09-11T12:26:46.995Z,19.14
2022-09-11T12:29:51.701Z,19.20
2022-09-11T12:32:42.830Z,19.09
2022-09-11T12:35:26.132Z,19.05
2022-09-11T12:37:59.845Z,19.01
2022-09-11T12:40:34.558Z,19.03
2022-09-11T12:43:18.775Z,19.09
2022-09-11T12:45:48.485Z,19.08
2022-09-11T12:48:22.576Z,18.97
2022-09-11T12:50:52.515Z,19.06
2022-09-11T12:53:25.373Z,19.17
2022-09-11T12:55:58.101Z,19.12
2022-09-11T12:58:32.157Z,19.12
2022-09-11T13:01:14.959Z,19.21
2022-09-11T13:03:53.407Z,19.33
2022-09-11T13:06:22.428Z,19.31
2022-09-11T13:08:53.619Z,19.42
2022-09-11T13:11:42.659Z,19.60
2022-09-11T13:14:49.717Z,19.58
2022-09-11T13:17:25.876Z,19.61
2022-09-11T13:20:10.729Z,19.53
2022-09-11T13:22:39.363Z,19.67
2022-09-11T13:25:15.498Z,19.62
2022-09-11T13:27:46.700Z,19.72
2022-09-11T13:30:17.150Z,19.72
2022-09-11T13:32:48.512Z,19.68
2022-09-11T13:35:27.004Z,19.63
2022-09-11T13:37:59.598Z,19.61
2022-09-11T13:40:31.728Z,19.57
2022-09-11T13:43:01.434Z,19.64
2022-09-11T13:45:29.617Z,19.65
2022-09-11T13:47:58.371Z,19.58
2022-09-11T13:50:27.965Z,19.53
2022-09-11T13:52:56.067Z,19.58
2022-09-11T13:55:26.969Z,19.57
2022-09-11T13:57:58.516Z,19.52
2022-09-11T14:00:44.862Z,19.53
2022-09-11T14:03:20.720Z,19.53
2022-09-11T14:05:53.956Z,19.51
2022-09-11T14:08:32.537Z,19.55
2022-09-11T14:11:03.482Z,19.49
2022-09-11T14:13:35.083Z,19.51
2022-09-11T14:16:07.258Z,19.46
2022-09-11T14:18:41.836Z,19.44
2022-09-11T14:21:16.192Z,19.33
2022-09-11T14:23:48.159Z,19.34
2022-09-11T14:26:18.865Z,19.24
2022-09-11T14:29:22.937Z,19.25
2022-09-11T14:31:52.135Z,19.25
2022-09-11T14:34:22.059Z,19.18
2022-09-11T14:36:56.479Z,19.21
2022-09-11T14:39:28.921Z,19.13
2022-09-11T14:41:58.081Z,19.14
2022-09-11T14:44:27.579Z,19.17
2022-09-11T14:46:56.187Z,19.15
2022-09-11T14:49:24.279Z,19.10
2022-09-11T14:51:58.229Z,19.14
2022-09-11T14:54:27.668Z,19.12
2022-09-11T14:56:56.020Z,19.09
2022-09-11T14:59:24.004Z,19.10
2022-09-11T15:01:52.668Z,19.14
2022-09-11T15:04:23.047Z,19.16
2022-09-11T15:06:53.079Z,19.13
2022-09-11T15:09:22.739Z,19.07
2022-09-11T15:11:52.338Z,19.04
2022-09-11T15:14:44.784Z,19.04
2022-09-11T15:17:11.950Z,18.97
2022-09-11T15:19:40.892Z,19.00
2022-09-11T15:22:09.611Z,19.04
2022-09-11T15:24:38.998Z,19.05
2022-09-11T15:27:07.596Z,19.06
2022-09-11T15:29:36.245Z,19.04
2022-09-11T15:32:04.830Z,19.00
2022-09-11T15:34:33.270Z,19.00
2022-09-11T15:37:02.072Z,19.04
2022-09-11T15:39:30.188Z,19.08
2022-09-11T15:42:01.849Z,19.01
2022-09-11T15:44:30.312Z,19.07
2022-09-11T15:46:59.543Z,19.10
2022-09-11T15:49:29.454Z,19.06
2022-09-11T15:51:58.290Z,19.08
2022-09-11T15:54:27.058Z,19.13
2022-09-11T15:56:55.112Z,19.14
2022-09-11T15:59:24.656Z,19.21
2022-09-11T16:01:53.409Z,19.25
2022-09-11T16:04:23.027Z,19.24
2022-09-11T16:06:53.538Z,19.27
2022-09-11T16:09:23.985Z,19.23
2022-09-11T16:11:54.653Z,19.14
2022-09-11T16:14:25.848Z,19.16
2022-09-11T16:16:54.791Z,19.16
2022-09-11T16:19:28.029Z,19.14
2022-09-11T16:21:57.365Z,19.16
2022-09-11T16:24:26.809Z,19.16
2022-09-11T16:26:56.044Z,19.12
2022-09-11T16:29:43.999Z,19.13
2022-09-11T16:32:28.686Z,19.10
2022-09-11T16:34:57.781Z,19.07
2022-09-11T16:37:26.338Z,19.05
2022-09-11T16:39:54.660Z,18.99
2022-09-11T16:42:23.194Z,18.97
2022-09-11T16:44:53.642Z,18.96
2022-09-11T16:47:22.228Z,18.92
2022-09-11T16:50:08.063Z,18.89
2022-09-11T16:52:36.786Z,18.89
2022-09-11T16:55:08.298Z,18.84
2022-09-11T16:57:37.366Z,18.81
2022-09-11T17:00:10.042Z,18.79
2022-09-11T17:02:38.676Z,18.78
2022-09-11T17:05:08.157Z,18.76
2022-09-11T17:07:36.666Z,18.72
2022-09-11T17:10:05.960Z,18.71
2022-09-11T17:12:34.294Z,18.67
2022-09-11T17:15:02.800Z,18.64
2022-09-11T17:17:33.078Z,18.57
2022-09-11T17:20:01.385Z,18.52
2022-09-11T17:22:29.871Z,18.52
2022-09-11T17:24:58.186Z,18.49
2022-09-11T17:27:26.507Z,18.45
2022-09-11T17:29:54.813Z,18.42
2022-09-11T17:32:28.378Z,18.40
2022-09-11T17:34:58.755Z,18.35
2022-09-11T17:37:27.840Z,18.31
2022-09-11T17:39:56.202Z,18.24
2022-09-11T17:42:24.796Z,18.21
2022-09-11T17:44:53.069Z,18.16
2022-09-11T17:47:21.425Z,18.11
2022-09-11T17:49:50.756Z,18.09
2022-09-11T17:52:20.851Z,18.05
2022-09-11T17:54:49.222Z,18.01
2022-09-11T17:57:17.651Z,17.95
2022-09-11T17:59:49.982Z,17.92
2022-09-11T18:02:19.828Z,17.88
2022-09-11T18:04:48.998Z,17.83
2022-09-11T18:07:17.471Z,17.79
2022-09-11T18:09:47.298Z,17.70
2022-09-11T18:12:15.691Z,17.67
2022-09-11T18:14:44.070Z,17.65
2022-09-11T18:17:12.083Z,17.57
2022-09-11T18:19:40.128Z,17.51
2022-09-11T18:22:09.796Z,17.42
2022-09-11T18:24:39.871Z,17.37
2022-09-11T18:27:10.204Z,17.33
2022-09-11T18:29:39.967Z,17.25
2022-09-11T18:32:10.161Z,17.14
2022-09-11T18:34:38.483Z,17.14
2022-09-11T18:37:07.602Z,17.10
2022-09-11T18:39:35.988Z,17.00
2022-09-11T18:42:07.089Z,16.95
2022-09-11T18:44:36.496Z,16.89
2022-09-11T18:47:04.501Z,16.85
2022-09-11T18:49:32.623Z,16.79
2022-09-11T18:52:00.655Z,16.75
2022-09-11T18:54:30.047Z,16.62
2022-09-11T18:57:00.029Z,16.60
2022-09-11T18:59:28.457Z,16.55
2022-09-11T19:01:58.644Z,16.52
2022-09-11T19:04:28.257Z,16.48
2022-09-11T19:06:56.300Z,16.42
2022-09-11T19:09:24.334Z,16.40
2022-09-11T19:11:54.755Z,16.34
2022-09-11T19:14:22.815Z,16.32
2022-09-11T19:16:51.784Z,16.30
2022-09-11T19:19:21.520Z,16.27
2022-09-11T19:21:49.562Z,16.25
2022-09-11T19:24:17.570Z,16.18
2022-09-11T19:26:46.339Z,16.13
2022-09-11T19:29:15.893Z,16.11
2022-09-11T19:31:43.961Z,16.04
2022-09-11T19:34:13.180Z,16.02
2022-09-11T19:36:42.854Z,15.98
2022-09-11T19:39:12.404Z,15.97
2022-09-11T19:41:40.957Z,15.91
2022-09-11T19:44:12.132Z,15.84
2022-09-11T19:46:41.522Z,15.80
2022-09-11T19:49:11.146Z,15.77
2022-09-11T19:51:41.364Z,15.74
2022-09-11T19:54:13.220Z,15.69
2022-09-11T19:56:42.442Z,15.63
2022-09-11T19:59:11.047Z,15.59
2022-09-11T20:01:39.155Z,15.53
2022-09-11T20:04:07.292Z,15.47
2022-09-11T20:06:36.414Z,15.43
2022-09-11T20:09:30.386Z,15.44
2022-09-11T20:11:56.369Z,15.39
2022-09-11T20:14:24.457Z,15.40
2022-09-11T20:16:52.896Z,15.33
2022-09-11T20:19:20.917Z,15.34
2022-09-11T20:21:49.266Z,15.28
2022-09-11T20:24:17.327Z,15.25
2022-09-11T20:26:45.312Z,15.21
2022-09-11T20:29:16.563Z,15.18
2022-09-11T20:31:49.009Z,15.11
2022-09-11T20:34:18.103Z,15.04
2022-09-11T20:36:46.518Z,14.97
2022-09-11T20:39:15.433Z,14.97
2022-09-11T20:41:44.068Z,14.92
2022-09-11T20:44:12.369Z,14.88
2022-09-11T20:46:43.711Z,14.87
2022-09-11T20:49:12.325Z,14.87
2022-09-11T20:51:40.829Z,14.83
2022-09-11T20:54:08.906Z,14.81
2022-09-11T20:56:36.943Z,14.67
2022-09-11T20:59:05.080Z,14.66
2022-09-11T21:01:34.375Z,14.65
2022-09-11T21:04:05.042Z,14.60
2022-09-11T21:06:35.488Z,14.59
2022-09-11T21:09:06.967Z,14.50
2022-09-11T21:11:36.334Z,14.48
2022-09-11T21:14:04.775Z,14.45
2022-09-11T21:16:33.660Z,14.44
2022-09-11T21:19:04.283Z,14.40
2022-09-11T21:21:33.673Z,14.37
2022-09-11T21:24:04.257Z,14.32
2022-09-11T21:26:33.668Z,14.24
2022-09-11T21:29:04.729Z,14.24
2022-09-11T21:31:32.953Z,14.16
2022-09-11T21:34:01.529Z,14.13
2022-09-11T21:36:30.952Z,14.15
2022-09-11T21:38:58.929Z,14.14
2022-09-11T21:41:27.114Z,14.12
2022-09-11T21:43:55.109Z,14.13
2022-09-11T21:46:23.156Z,14.07
2022-09-11T21:48:51.164Z,14.05
2022-09-11T21:51:21.057Z,14.01
2022-09-11T21:53:55.770Z,14.02
2022-09-11T21:56:25.825Z,13.94
2022-09-11T21:58:55.019Z,13.92
2022-09-11T22:01:24.984Z,13.91
2022-09-11T22:03:53.388Z,13.87
2022-09-11T22:06:23.731Z,13.86
2022-09-11T22:08:53.616Z,13.84
2022-09-11T22:11:21.959Z,13.79
2022-09-11T22:13:50.460Z,13.79
2022-09-11T22:16:20.109Z,13.73
2022-09-11T22:18:50.368Z,13.69
2022-09-11T22:21:18.390Z,13.66
2022-09-11T22:23:46.520Z,13.67
2022-09-11T22:26:18.005Z,13.61
2022-09-11T22:28:46.120Z,13.55
2022-09-11T22:31:16.302Z,13.49
2022-09-11T22:33:44.744Z,13.49
2022-09-11T22:36:15.133Z,13.48
2022-09-11T22:38:43.228Z,13.44
2022-09-11T22:41:11.256Z,13.44
2022-09-11T22:43:40.689Z,13.42
2022-09-11T22:46:08.819Z,13.45
2022-09-11T22:48:36.937Z,13.39
2022-09-11T22:51:05.042Z,13.38
2022-09-11T22:53:33.300Z,13.32
2022-09-11T22:56:01.600Z,13.24
2022-09-11T22:58:30.639Z,13.23
2022-09-11T23:01:02.491Z,13.23
2022-09-11T23:03:31.048Z,13.20
2022-09-11T23:06:17.703Z,13.25
2022-09-11T23:08:47.058Z,13.16
2022-09-11T23:11:16.147Z,13.19
2022-09-11T23:13:44.967Z,13.11
2022-09-11T23:16:15.672Z,13.04
2022-09-11T23:18:44.275Z,13.09
2022-09-11T23:21:13.432Z,13.07
2022-09-11T23:23:42.971Z,13.06
2022-09-11T23:26:12.121Z,13.07
2022-09-11T23:28:40.987Z,13.03
2022-09-11T23:31:15.987Z,13.00
2022-09-11T23:33:44.281Z,13.01
2022-09-11T23:36:14.546Z,13.00
2022-09-11T23:38:45.476Z,12.96
2022-09-11T23:41:14.163Z,12.90
2022-09-11T23:43:42.697Z,12.85
2022-09-11T23:46:11.629Z,12.87
2022-09-11T23:48:41.138Z,12.78
2022-09-11T23:51:10.362Z,12.80
2022-09-11T23:53:39.831Z,12.76
2022-09-11T23:56:08.322Z,12.72
2022-09-11T23:58:39.796Z,12.74
